Time;durP1;ratioP1;P1;durP2;ratioP2;P2;SDS_P1;SDS_P2;PMS_P1;PMS_P2;Temp;Humidity;BMP_temperature;BMP_pressure;BME280_temperature;BME280_humidity;BME280_pressure;Samples;Min_cycle;Max_cycle;Signal;HPM_P1;HPM_P2
2024/03/14 00:02:35;;;;;;;4.75;3.52;;;;;;;21.24;45.69;100888.46;2303790;75;50695;-78
2024/03/14 00:05:37;;;;;;;5.05;3.17;;;;;;;21.25;45.69;100892.84;2341084;76;51417;-78
2024/03/14 00:08:39;;;;;;;6.70;3.12;;;;;;;21.24;45.67;100888.46;2302822;76;50071;-77
2024/03/14 00:11:42;;;;;;;5.28;2.92;;;;;;;21.23;45.70;100883.59;2341038;76;51515;-78
2024/03/14 00:14:50;;;;;;;5.95;3.35;;;;;;;21.24;45.68;100885.77;2304359;76;51369;-79
2024/03/14 00:17:48;;;;;;;5.87;3.60;;;;;;;21.23;45.70;100890.33;2340274;76;22796;-79
2024/03/14 00:20:50;;;;;;;5.55;3.92;;;;;;;21.23;45.71;100886.81;2342044;76;51685;-78
2024/03/14 00:23:54;;;;;;;8.18;3.40;;;;;;;21.22;45.70;100884.64;2342028;74;51495;-79
2024/03/14 00:26:56;;;;;;;9.53;3.62;;;;;;;21.22;45.70;100890.51;2305805;76;52397;-78
2024/03/14 00:29:58;;;;;;;5.35;3.55;;;;;;;21.22;45.71;100878.40;2341850;76;50360;-78
2024/03/14 00:33:00;;;;;;;8.63;3.55;;;;;;;21.22;45.67;100883.78;2304127;76;49496;-77
2024/03/14 00:36:04;;;;;;;5.03;3.62;;;;;;;21.21;45.67;100879.44;2340684;76;50207;-78
2024/03/14 00:39:06;;;;;;;6.28;3.17;;;;;;;21.21;45.68;100875.40;2341232;76;50686;-78
2024/03/14 00:42:09;;;;;;;4.00;3.20;;;;;;;21.21;45.68;100868.16;2304811;74;51815;-78
2024/03/14 00:45:12;;;;;;;5.20;3.22;;;;;;;21.21;45.62;100868.67;2341728;76;51729;-78
2024/03/14 00:48:15;;;;;;;6.03;3.30;;;;;;;21.22;45.56;100868.98;2305332;76;49978;-78
2024/03/14 00:51:17;;;;;;;5.00;3.52;;;;;;;21.22;45.49;100873.02;2341845;76;50401;-78
2024/03/14 00:54:19;;;;;;;6.12;3.47;;;;;;;21.24;45.51;100870.97;2341980;74;50714;-78
2024/03/14 00:57:21;;;;;;;6.70;3.67;;;;;;;21.23;45.44;100867.97;2304882;76;51757;-79
2024/03/14 01:00:23;;;;;;;4.62;3.00;;;;;;;21.23;45.46;100869.31;2341943;76;51573;-78
2024/03/14 01:03:26;;;;;;;5.95;3.00;;;;;;;21.23;45.47;100874.18;2341431;74;50747;-77
2024/03/14 01:06:28;;;;;;;6.65;3.70;;;;;;;21.23;45.47;100865.28;2302523;76;49645;-78
2024/03/14 01:09:30;;;;;;;5.05;3.52;;;;;;;21.23;45.43;100866.11;2341583;76;50771;-78
2024/03/14 01:12:33;;;;;;;4.80;2.65;;;;;;;21.24;45.42;100862.38;2304678;74;50731;-77
2024/03/14 01:15:35;;;;;;;7.12;2.90;;;;;;;21.24;45.46;100862.89;2302625;76;50669;-78
2024/03/14 01:18:39;;;;;;;4.60;3.12;;;;;;;21.23;45.38;100851.30;2340490;76;51541;-78
2024/03/14 01:21:41;;;;;;;4.75;3.35;;;;;;;21.23;45.38;100847.27;2341847;76;22971;-78
2024/03/14 01:24:43;;;;;;;6.00;3.20;;;;;;;21.23;45.36;100851.30;2341347;74;51698;-78
2024/03/14 01:27:45;;;;;;;6.55;3.35;;;;;;;21.22;45.38;100846.96;2340259;76;50733;-77
2024/03/14 01:30:47;;;;;;;3.60;2.80;;;;;;;21.23;45.35;100853.17;2304925;76;50966;-78
2024/03/14 01:33:51;;;;;;;6.53;3.27;;;;;;;21.23;45.35;100848.61;2304498;76;50740;-77
2024/03/14 01:36:53;;;;;;;5.95;3.45;;;;;;;21.24;45.38;100848.92;2303827;76;51356;-78
2024/03/14 01:39:56;;;;;;;3.52;2.83;;;;;;;21.24;45.39;100845.41;2304973;76;50680;-77
2024/03/14 01:42:58;;;;;;;4.50;3.20;;;;;;;21.23;45.45;100838.37;2341379;74;50759;-78
2024/03/14 01:46:00;;;;;;;4.90;3.22;;;;;;;21.24;45.51;100841.37;2304477;76;50981;-77
2024/03/14 01:49:03;;;;;;;5.03;2.83;;;;;;;21.23;45.56;100836.50;2341301;76;50490;-78
2024/03/14 01:52:05;;;;;;;4.05;3.17;;;;;;;21.25;45.60;100843.05;2340944;74;50285;-77
2024/03/14 01:55:10;;;;;;;4.75;3.30;;;;;;;21.24;45.60;100835.46;2252536;76;51756;-78
2024/03/14 01:58:15;;;;;;;5.78;3.10;;;;;;;21.24;45.57;100837.33;2341168;76;50982;-78
2024/03/14 02:01:17;;;;;;;3.72;3.10;;;;;;;21.24;45.54;100833.29;2341306;76;22876;-78
2024/03/14 02:04:19;;;;;;;5.87;3.00;;;;;;;21.24;45.52;100826.05;2341310;74;50812;-79
2024/03/14 02:07:23;;;;;;;4.92;3.25;;;;;;;21.23;45.46;100825.73;2341205;76;52601;-79
2024/03/14 02:10:25;;;;;;;4.03;2.83;;;;;;;21.25;45.45;100828.25;2304555;76;49954;-78
2024/03/14 02:13:27;;;;;;;6.65;3.20;;;;;;;21.24;45.44;100823.87;2340995;74;49957;-78
2024/03/14 02:16:30;;;;;;;3.95;2.75;;;;;;;21.24;45.43;100822.01;2340957;76;50621;-79
2024/03/14 02:19:33;;;;;;;4.10;2.95;;;;;;;21.24;45.41;100819.83;2303678;76;52676;-77
2024/03/14 02:22:35;;;;;;;6.72;2.98;;;;;;;21.24;45.48;100816.63;2303616;75;51427;-79
2024/03/14 02:25:37;;;;;;;4.37;2.95;;;;;;;21.24;45.54;100815.80;2340700;76;50530;-78
2024/03/14 02:28:39;;;;;;;4.65;2.90;;;;;;;21.26;45.56;100819.13;2340688;76;51585;-78
2024/03/14 02:31:42;;;;;;;5.80;2.90;;;;;;;21.26;45.55;100816.44;2341233;76;50342;-79
2024/03/14 02:34:44;;;;;;;5.78;3.27;;;;;;;21.25;45.59;100815.61;2303686;76;52696;-78
2024/03/14 02:37:47;;;;;;;5.28;2.75;;;;;;;21.26;45.55;100819.13;2340058;76;51544;-78
2024/03/14 02:40:49;;;;;;;5.08;3.00;;;;;;;21.25;45.56;100810.75;2339982;76;50716;-77
2024/03/14 02:43:53;;;;;;;3.77;3.10;;;;;;;21.26;45.53;100816.44;2303026;76;50937;-78
2024/03/14 02:46:56;;;;;;;3.65;3.12;;;;;;;21.25;45.49;100806.72;2303599;76;51506;-79
2024/03/14 02:49:58;;;;;;;4.83;2.92;;;;;;;21.25;45.49;100811.58;2340612;76;50764;-78
2024/03/14 02:53:00;;;;;;;3.40;2.77;;;;;;;21.26;45.47;100813.75;2341112;74;51539;-78
2024/03/14 02:56:03;;;;;;;3.98;2.90;;;;;;;21.25;45.49;100809.41;2341146;76;50711;-79
2024/03/14 02:59:05;;;;;;;4.62;3.15;;;;;;;21.25;45.48;100810.75;2279602;76;50244;-79
2024/03/14 03:02:10;;;;;;;5.47;3.27;;;;;;;21.24;45.48;100809.89;2304762;74;50115;-78
2024/03/14 03:05:12;;;;;;;5.87;3.20;;;;;;;21.24;45.46;100801.82;2340977;76;22441;-79
2024/03/14 03:08:15;;;;;;;4.08;2.52;;;;;;;21.24;45.47;100800.48;2254915;76;51148;-78
2024/03/14 03:11:17;;;;;;;3.85;2.72;;;;;;;21.24;45.57;100803.69;2341835;76;51746;-78
2024/03/14 03:14:21;;;;;;;5.75;2.75;;;;;;;21.25;45.66;100801.33;2341753;74;50401;-79
2024/03/14 03:17:23;;;;;;;3.90;2.58;;;;;;;21.25;45.68;100810.75;2342325;76;50700;-79
2024/03/14 03:20:25;;;;;;;4.42;3.00;;;;;;;21.25;45.72;100806.72;2342381;76;50623;-79
2024/03/14 03:23:27;;;;;;;5.80;3.05;;;;;;;21.25;45.71;100802.16;2305287;76;50920;-79
2024/03/14 03:26:29;;;;;;;5.35;3.10;;;;;;;21.25;45.73;100806.72;2340693;76;50709;-78
2024/03/14 03:29:32;;;;;;;4.35;2.70;;;;;;;21.24;45.77;100799.13;2341304;76;51535;-80
2024/03/14 03:32:34;;;;;;;3.45;2.90;;;;;;;21.25;45.75;100804.02;2280079;74;50013;-79
2024/03/14 03:35:36;;;;;;;4.28;2.60;;;;;;;21.25;45.78;100800.81;2305516;76;50677;-78
2024/03/14 03:38:40;;;;;;;3.45;2.60;;;;;;;21.25;45.77;100806.72;2342365;76;50615;-78
2024/03/14 03:41:42;;;;;;;4.65;2.83;;;;;;;21.25;45.75;100804.02;2304709;76;50151;-78
2024/03/14 03:44:44;;;;;;;3.95;2.80;;;;;;;21.25;45.72;100795.95;2341858;74;50361;-78
2024/03/14 03:47:47;;;;;;;3.70;2.67;;;;;;;21.25;45.71;100802.68;2340575;76;50669;-78
2024/03/14 03:50:49;;;;;;;3.22;2.60;;;;;;;21.24;45.70;100798.30;2305290;76;49557;-79
2024/03/14 03:53:52;;;;;;;3.08;2.40;;;;;;;21.23;45.67;100800.69;2342473;74;50738;-78
2024/03/14 03:56:54;;;;;;;4.03;2.83;;;;;;;21.24;45.65;100796.95;2342410;76;50668;-80
2024/03/14 03:59:57;;;;;;;3.33;2.35;;;;;;;21.24;45.67;100798.30;2341711;76;50266;-78
2024/03/14 04:03:08;;;;;;;5.33;3.08;;;;;;;21.24;45.68;100798.30;2341626;74;51559;-78
2024/03/14 04:06:10;;;;;;;2.98;2.67;;;;;;;21.24;45.66;100800.48;2341994;76;22560;-79
2024/03/14 04:09:15;;;;;;;3.75;2.80;;;;;;;21.23;45.73;100802.86;2341666;76;50097;-79
2024/03/14 04:12:16;;;;;;;2.83;2.52;;;;;;;21.23;45.76;100802.86;2281300;74;22401;-79
2024/03/14 04:15:19;;;;;;;3.02;2.45;;;;;;;21.23;45.79;100802.04;2304393;76;50256;-79
2024/03/14 04:18:21;;;;;;;4.37;2.80;;;;;;;21.22;45.81;100799.86;2305331;76;51415;-79
2024/03/14 04:21:23;;;;;;;3.30;2.60;;;;;;;21.24;45.79;100805.03;2341728;76;50238;-77
2024/03/14 04:24:25;;;;;;;3.98;2.50;;;;;;;21.22;45.80;100799.86;2340543;74;50327;-78
2024/03/14 04:27:29;;;;;;;3.37;2.75;;;;;;;21.22;45.79;100795.83;2278713;76;50390;-78
2024/03/14 04:30:31;;;;;;;3.40;2.42;;;;;;;21.23;45.74;100793.96;2304949;76;52486;-78
2024/03/14 04:33:34;;;;;;;2.50;2.30;;;;;;;21.22;45.73;100796.31;2342006;74;51542;-79
2024/03/14 04:36:37;;;;;;;3.72;2.47;;;;;;;21.22;45.77;100798.52;2341716;76;51499;-79
2024/03/14 04:39:40;;;;;;;3.52;2.52;;;;;;;21.22;45.79;100797.17;2304670;76;50088;-79
2024/03/14 04:42:42;;;;;;;4.47;2.55;;;;;;;21.23;45.81;100803.38;2305589;74;50022;-79
2024/03/14 04:45:45;;;;;;;3.98;2.80;;;;;;;21.22;45.83;100800.36;2341643;76;51404;-78
2024/03/14 04:48:51;;;;;;;5.05;2.83;;;;;;;21.22;45.87;100800.36;2304153;76;50663;-78
2024/03/14 04:51:54;;;;;;;3.60;2.87;;;;;;;21.22;45.86;100803.05;2341338;76;22376;-78
2024/03/14 04:54:55;;;;;;;3.15;2.65;;;;;;;21.22;45.82;100805.73;2340746;76;22421;-78
2024/03/14 04:57:58;;;;;;;5.22;2.55;;;;;;;21.21;45.83;100809.47;2341468;76;51646;-78
2024/03/14 05:01:00;;;;;;;4.15;2.60;;;;;;;21.21;45.84;100810.81;2341352;76;50586;-79
2024/03/14 05:04:05;;;;;;;3.83;2.02;;;;;;;21.21;45.86;100808.95;2305338;76;52569;-79
2024/03/14 05:07:07;;;;;;;2.77;2.30;;;;;;;21.22;45.87;100809.28;2306506;76;51637;-79
2024/03/14 05:10:10;;;;;;;2.95;2.65;;;;;;;21.21;45.88;100812.98;2342504;76;52546;-79
2024/03/14 05:13:12;;;;;;;2.90;2.40;;;;;;;21.21;45.91;100813.51;2305701;76;51631;-79
2024/03/14 05:16:16;;;;;;;2.75;2.27;;;;;;;21.21;45.92;100813.51;2342125;76;50708;-79
2024/03/14 05:19:23;;;;;;;2.90;2.35;;;;;;;21.21;45.91;100810.81;2305010;76;49701;-79
2024/03/14 05:22:22;;;;;;;2.80;2.25;;;;;;;21.20;45.91;100809.98;2341660;74;22284;-79
2024/03/14 05:25:25;;;;;;;3.50;2.52;;;;;;;21.21;45.89;100810.81;2342281;76;50460;-79
2024/03/14 05:28:27;;;;;;;3.37;2.40;;;;;;;21.21;45.88;100809.47;2305374;76;51657;-80
2024/03/14 05:31:30;;;;;;;3.10;2.20;;;;;;;21.20;45.89;100807.82;2305574;76;50710;-80
2024/03/14 05:34:32;;;;;;;4.15;2.58;;;;;;;21.19;45.93;100804.80;2342353;74;51281;-81
2024/03/14 05:37:34;;;;;;;3.62;2.15;;;;;;;21.20;45.91;100807.82;2305299;76;50439;-80
2024/03/14 05:40:37;;;;;;;4.95;2.70;;;;;;;21.19;45.95;100806.14;2341457;76;50753;-80
2024/03/14 05:43:39;;;;;;;4.97;2.80;;;;;;;21.20;45.96;100794.36;2254724;76;52474;-80
2024/03/14 05:46:41;;;;;;;5.58;2.85;;;;;;;21.20;45.98;100793.02;2304577;76;51965;-81
2024/03/14 05:49:43;;;;;;;7.40;2.42;;;;;;;21.20;45.94;100788.46;2341475;76;50715;-79
2024/03/14 05:52:47;;;;;;;6.08;2.52;;;;;;;21.19;46.06;100796.20;2277830;76;50994;-77
2024/03/14 05:55:49;;;;;;;4.03;2.47;;;;;;;21.20;46.05;100788.98;2303835;76;50160;-78
2024/03/14 05:58:51;;;;;;;5.03;2.45;;;;;;;21.19;46.14;100797.55;2303472;76;50649;-78
2024/03/14 06:01:54;;;;;;;6.58;2.83;;;;;;;21.20;46.56;100787.12;2340716;76;51502;-79
2024/03/14 06:04:56;;;;;;;4.45;2.50;;;;;;;21.22;46.64;100792.28;2341445;76;50485;-79
2024/03/14 06:07:58;;;;;;;4.42;2.55;;;;;;;21.22;46.67;100801.70;2303552;76;51733;-78
2024/03/14 06:11:00;;;;;;;11.95;3.90;;;;;;;21.22;46.71;100811.98;2340971;76;51501;-79
2024/03/14 06:14:03;;;;;;;7.45;2.75;;;;;;;21.23;46.78;100803.38;2304765;76;51518;-79
2024/03/14 06:17:05;;;;;;;18.20;3.92;;;;;;;21.23;46.98;100806.08;2305237;76;52406;-78
2024/03/14 06:20:09;;;;;;;19.90;4.40;;;;;;;21.23;48.02;100802.04;2341491;76;50641;-79
2024/03/14 06:23:11;;;;;;;11.30;2.80;;;;;;;21.25;48.20;100809.41;2280334;76;51589;-78
2024/03/14 06:26:13;;;;;;;18.70;3.67;;;;;;;21.27;48.10;100810.02;2341413;76;51736;-78
2024/03/14 06:29:16;;;;;;;19.25;3.87;;;;;;;21.29;48.17;100803.93;2304746;76;50278;-77
2024/03/14 06:32:18;;;;;;;15.48;3.37;;;;;;;21.30;48.34;100815.03;2340858;76;50202;-78
2024/03/14 06:35:21;;;;;;;16.00;3.40;;;;;;;21.32;48.48;100810.26;2316841;76;50155;-78
2024/03/14 06:38:28;;;;;;;9.35;3.67;;;;;;;21.35;49.05;100809.89;2341137;76;51551;-79
2024/03/14 06:41:27;;;;;;;14.73;3.42;;;;;;;21.34;48.77;100808.20;2307275;74;23293;-79
2024/03/14 06:44:29;;;;;;;21.77;4.00;;;;;;;21.34;48.78;100810.90;2340727;76;50388;-79
2024/03/14 06:47:33;;;;;;;23.42;3.77;;;;;;;21.36;48.90;100811.53;2340995;76;50302;-78
2024/03/14 06:50:35;;;;;;;15.78;3.62;;;;;;;21.37;49.05;100809.15;2341311;76;22308;-78
2024/03/14 06:53:38;;;;;;;16.42;4.30;;;;;;;21.36;48.67;100813.41;2339977;76;51518;-78
2024/03/14 06:56:40;;;;;;;15.90;3.92;;;;;;;21.35;48.65;100819.80;2303710;76;50076;-82
2024/03/14 06:59:48;;;;;;;19.30;4.10;;;;;;;21.35;48.62;100818.45;2304185;76;51385;-79
2024/03/14 07:02:48;;;;;;;18.20;3.60;;;;;;;21.34;48.57;100821.66;2304624;76;23147;-79
2024/03/14 07:05:57;;;;;;;19.05;3.98;;;;;;;21.35;48.48;100819.80;2303837;76;51148;-79
2024/03/14 07:08:59;;;;;;;15.32;3.67;;;;;;;21.34;48.46;100816.28;2339622;76;22446;-79
2024/03/14 07:11:58;;;;;;;13.08;4.00;;;;;;;21.35;48.40;100823.34;2340072;76;22397;-79
2024/03/14 07:15:01;;;;;;;11.95;3.55;;;;;;;21.34;48.30;100825.70;2304465;76;50436;-79
2024/03/14 07:18:05;;;;;;;13.45;3.62;;;;;;;21.34;48.30;100813.59;2341017;76;51629;-79
2024/03/14 07:21:07;;;;;;;16.73;3.70;;;;;;;21.34;48.17;100816.28;2253136;76;51476;-80
2024/03/14 07:24:09;;;;;;;14.07;3.58;;;;;;;21.34;48.21;100820.84;2340875;76;51195;-78
2024/03/14 07:27:12;;;;;;;10.63;4.00;;;;;;;21.33;48.16;100825.39;2340631;76;50510;-79
2024/03/14 07:30:24;;;;;;;10.38;3.30;;;;;;;21.33;48.11;100830.78;2304290;76;50280;-79
2024/03/14 07:33:18;;;;;;;11.20;3.37;;;;;;;21.34;48.10;100831.61;2337755;76;22462;-78
2024/03/14 07:36:23;;;;;;;15.28;3.50;;;;;;;21.33;48.05;100832.64;2340643;76;50267;-79
2024/03/14 07:39:26;;;;;;;11.00;3.47;;;;;;;21.33;48.02;100838.03;2304209;76;22393;-80
2024/03/14 07:42:29;;;;;;;9.53;3.83;;;;;;;21.34;47.94;100841.03;2340182;76;22372;-78
2024/03/14 07:45:32;;;;;;;12.35;3.95;;;;;;;21.33;47.96;100842.06;2302999;76;50118;-78
2024/03/14 07:48:34;;;;;;;9.05;3.40;;;;;;;21.32;48.02;100846.59;2340170;76;50620;-78
2024/03/14 07:51:36;;;;;;;9.83;3.60;;;;;;;21.31;48.00;100849.80;2340303;76;50457;-78
2024/03/14 07:54:39;;;;;;;12.35;2.90;;;;;;;21.32;47.96;100849.28;2303355;76;50056;-79
2024/03/14 07:57:42;;;;;;;8.15;3.62;;;;;;;21.31;47.92;100855.70;2340522;76;50469;-79
2024/03/14 08:00:46;;;;;;;6.65;3.62;;;;;;;21.30;47.90;100854.88;2304203;76;50475;-80
2024/03/14 08:03:48;;;;;;;8.78;3.45;;;;;;;21.31;47.89;100866.47;2304340;76;50317;-79
2024/03/14 08:06:51;;;;;;;10.58;3.05;;;;;;;21.30;47.88;100858.92;2340558;76;50717;-79
2024/03/14 08:09:56;;;;;;;13.98;3.40;;;;;;;21.31;47.87;100865.13;2303811;76;52303;-79
2024/03/14 08:12:57;;;;;;;5.55;3.12;;;;;;;21.30;47.86;100859.44;2340262;76;22427;-79
2024/03/14 08:19:19;;;;;;;9.05;3.47;;;;;;;21.30;47.81;100868.86;2341026;76;22311;-79
2024/03/14 08:22:22;;;;;;;9.38;3.15;;;;;;;21.29;47.81;100860.45;2340415;76;51434;-78
2024/03/14 08:25:24;;;;;;;6.92;2.67;;;;;;;21.28;47.82;100862.83;2340561;76;50686;-79
2024/03/14 08:28:27;;;;;;;12.63;3.65;;;;;;;21.29;47.79;100865.83;2340971;75;50042;-80
2024/03/14 08:31:29;;;;;;;6.22;3.08;;;;;;;21.28;47.83;100867.70;2304172;76;51573;-79
2024/03/14 08:34:33;;;;;;;8.30;3.00;;;;;;;21.28;47.80;100862.83;2340894;76;50676;-78
2024/03/14 08:37:35;;;;;;;13.13;3.55;;;;;;;21.28;47.81;100865.53;2340803;76;51557;-79
2024/03/14 08:40:37;;;;;;;6.15;3.20;;;;;;;21.28;47.74;100864.18;2340899;76;51621;-80
2024/03/14 08:43:40;;;;;;;8.75;2.98;;;;;;;21.28;47.77;100872.25;2304182;76;50070;-79
2024/03/14 08:46:43;;;;;;;6.00;3.12;;;;;;;21.28;47.79;100865.53;2340848;76;51488;-79
2024/03/14 08:49:47;;;;;;;7.12;3.00;;;;;;;21.28;47.79;100864.18;2340994;76;50734;-79
2024/03/14 08:52:49;;;;;;;7.53;3.12;;;;;;;21.28;47.83;100861.48;2340935;76;22911;-78
2024/03/14 08:55:57;;;;;;;7.78;3.12;;;;;;;21.28;47.78;100866.35;2340686;76;52064;-79
2024/03/14 08:58:59;;;;;;;6.67;2.90;;;;;;;21.28;47.75;100864.18;2303795;76;51028;-79
2024/03/14 09:02:01;;;;;;;7.25;3.45;;;;;;;21.28;47.75;100864.18;2340717;76;51466;-80
2024/03/14 09:05:05;;;;;;;9.95;3.42;;;;;;;21.27;47.80;100871.92;2303889;76;50320;-80
2024/03/14 09:08:08;;;;;;;7.75;3.52;;;;;;;21.27;47.73;100870.08;2252766;76;50932;-79
2024/03/14 09:11:10;;;;;;;4.55;2.92;;;;;;;21.28;47.71;100880.33;2340074;76;50374;-79
2024/03/14 09:14:12;;;;;;;6.53;2.92;;;;;;;21.28;47.72;100873.59;2340058;76;51464;-78
2024/03/14 09:17:15;;;;;;;5.75;2.90;;;;;;;21.27;47.70;100867.39;2339825;76;50739;-79
2024/03/14 09:20:19;;;;;;;6.92;3.27;;;;;;;21.27;47.70;100869.22;2339935;76;50751;-78
2024/03/14 09:23:25;;;;;;;7.25;2.87;;;;;;;21.26;47.70;100867.05;2340084;76;22429;-79
2024/03/14 09:26:25;;;;;;;4.23;2.87;;;;;;;21.26;47.71;100863.02;2340257;76;22685;-78
2024/03/14 09:29:28;;;;;;;7.42;2.80;;;;;;;21.26;47.66;100867.58;2340111;75;50415;-78
2024/03/14 09:32:30;;;;;;;5.00;3.00;;;;;;;21.27;47.63;100862.01;2303615;76;49597;-78
2024/03/14 09:35:33;;;;;;;7.25;3.45;;;;;;;21.26;47.65;100861.67;2303674;76;50629;-79
2024/03/14 09:38:35;;;;;;;6.30;3.47;;;;;;;21.27;47.66;100858.46;2340228;76;50093;-78
2024/03/14 09:41:37;;;;;;;7.55;3.00;;;;;;;21.27;47.68;100860.66;2303303;76;49980;-79
2024/03/14 09:44:39;;;;;;;4.60;2.83;;;;;;;21.27;47.67;100860.66;2303028;76;50512;-78
2024/03/14 09:47:43;;;;;;;6.80;3.02;;;;;;;21.27;47.71;100861.16;2302278;76;50976;-78
2024/03/14 09:50:47;;;;;;;5.10;2.90;;;;;;;21.28;47.65;100861.48;2303318;76;50799;-79
2024/03/14 09:53:49;;;;;;;6.10;3.12;;;;;;;21.28;47.66;100861.48;2339930;76;51545;-78
2024/03/14 09:56:51;;;;;;;8.20;3.10;;;;;;;21.28;47.62;100862.31;2302307;76;51117;-79
2024/03/14 09:59:55;;;;;;;5.47;2.62;;;;;;;21.28;47.61;100859.63;2339418;76;50740;-79
2024/03/14 10:02:58;;;;;;;5.20;2.87;;;;;;;21.29;47.64;100855.06;2339657;76;50247;-79
2024/03/14 10:06:00;;;;;;;10.53;5.03;;;;;;;21.29;47.66;100859.10;2340905;74;52668;-79
2024/03/14 10:09:09;;;;;;;8.83;5.25;;;;;;;21.28;47.78;100861.48;2340906;74;51509;-79
2024/03/14 10:12:12;;;;;;;8.38;4.42;;;;;;;21.28;47.67;100859.63;2339644;76;22470;-78
2024/03/14 10:15:16;;;;;;;27.77;5.30;;;;;;;21.28;47.62;100859.63;2361759;74;50840;-79
2024/03/14 10:18:20;;;;;;;8.88;3.90;;;;;;;21.28;47.68;100860.14;2296372;74;50656;-78
2024/03/14 10:21:22;;;;;;;12.30;4.00;;;;;;;21.29;47.64;100864.48;2322579;74;50077;-78
2024/03/14 10:24:31;;;;;;;9.68;3.70;;;;;;;21.30;47.71;100862.13;2353787;74;50699;-79
2024/03/14 10:27:32;;;;;;;6.60;3.72;;;;;;;21.30;47.67;100859.44;2345154;74;22342;-78
2024/03/14 10:30:36;;;;;;;13.38;7.45;;;;;;;21.29;47.70;100854.55;2340209;76;50417;-78
2024/03/14 10:33:40;;;;;;;16.30;9.63;;;;;;;21.27;47.07;100859.80;2340811;76;51576;-79
2024/03/14 10:36:43;;;;;;;21.85;11.85;;;;;;;21.17;46.56;100859.31;2316930;74;50131;-78
2024/03/14 10:39:52;;;;;;;15.78;9.30;;;;;;;21.18;46.48;100843.50;2342272;74;50790;-77
2024/03/14 10:42:54;;;;;;;12.50;8.20;;;;;;;21.17;46.97;100830.57;2359695;74;50560;-78
2024/03/14 10:45:56;;;;;;;11.12;6.87;;;;;;;21.19;47.23;100834.39;2325133;76;50126;-78
2024/03/14 10:48:58;;;;;;;8.50;5.95;;;;;;;21.20;47.25;100833.38;2345175;74;50053;-79
2024/03/14 10:52:01;;;;;;;7.97;5.92;;;;;;;21.20;47.20;100833.38;2356234;74;50358;-79
2024/03/14 10:55:04;;;;;;;10.23;5.83;;;;;;;21.21;47.19;100828.31;2346905;74;50897;-78
2024/03/14 10:58:06;;;;;;;8.13;5.47;;;;;;;21.22;47.21;100828.61;2354331;74;50660;-78
2024/03/14 11:01:11;;;;;;;334.98;308.02;;;;;;;21.23;47.33;100822.22;2313953;74;50951;-80
2024/03/14 11:04:13;;;;;;;138.17;126.03;;;;;;;21.26;47.41;100820.48;2353292;74;50674;-78
2024/03/14 11:07:16;;;;;;;100.87;91.42;;;;;;;21.25;47.17;100830.94;2351591;74;51650;-78
2024/03/14 11:10:31;;;;;;;71.65;64.67;;;;;;;21.21;46.03;100817.02;2316544;74;52471;-77
2024/03/14 11:13:36;;;;;;;88.33;79.85;;;;;;;21.23;46.79;100810.11;2311732;74;51575;-76
2024/03/14 11:16:39;;;;;;;74.75;67.65;;;;;;;21.27;46.41;100805.98;2350315;74;22402;-78
2024/03/14 11:19:44;;;;;;;64.67;58.60;;;;;;;21.31;46.39;100807.27;2347060;74;50313;-78
2024/03/14 11:22:47;;;;;;;55.33;50.28;;;;;;;21.35;46.45;100815.27;2349817;74;52442;-78
2024/03/14 11:25:53;;;;;;;53.50;48.50;;;;;;;21.38;46.56;100806.83;2316169;74;50108;-79
2024/03/14 11:29:02;;;;;;;47.55;42.78;;;;;;;21.44;46.55;100800.64;2350688;74;50009;-77
2024/03/14 11:32:18;;;;;;;44.67;40.67;;;;;;;21.46;46.55;100809.36;2344391;74;22506;-79
2024/03/14 11:35:32;;;;;;;40.60;36.95;;;;;;;21.46;46.58;100801.28;2306383;74;22419;-78
2024/03/14 11:38:35;;;;;;;41.02;37.13;;;;;;;21.47;46.63;100802.10;2352461;74;50043;-78
2024/03/14 11:41:42;;;;;;;39.40;35.70;;;;;;;21.50;46.57;100795.83;2347566;74;50757;-79
2024/03/14 11:44:45;;;;;;;38.30;34.70;;;;;;;21.51;46.56;100803.37;2340107;76;50689;-79
2024/03/14 11:47:50;;;;;;;36.15;32.40;;;;;;;21.50;46.66;100794.48;2341011;76;50769;-79
2024/03/14 11:50:53;;;;;;;35.70;31.97;;;;;;;21.49;46.76;100795.49;2340587;76;22397;-78
2024/03/14 11:54:00;;;;;;;33.25;30.15;;;;;;;21.49;46.78;100791.45;2303318;76;50686;-79
2024/03/14 11:57:00;;;;;;;34.90;31.70;;;;;;;21.49;46.78;100794.14;2340638;76;22362;-79
2024/03/14 12:00:08;;;;;;;32.55;29.57;;;;;;;21.49;46.80;100780.69;2303670;76;51581;-79
2024/03/14 12:03:13;;;;;;;32.88;29.75;;;;;;;21.48;46.81;100775.52;2340538;76;22051;-80
2024/03/14 12:06:17;;;;;;;32.00;29.20;;;;;;;21.47;46.81;100776.01;2339667;76;22322;-79
2024/03/14 12:09:24;;;;;;;31.17;28.42;;;;;;;21.49;46.80;100771.78;2340949;76;22477;-79
2024/03/14 12:12:26;;;;;;;30.72;27.50;;;;;;;21.51;46.82;100772.42;2341665;76;22270;-79
2024/03/14 12:15:30;;;;;;;30.57;27.77;;;;;;;21.52;46.88;100764.64;2341672;76;51411;-79
2024/03/14 12:18:33;;;;;;;28.83;25.95;;;;;;;21.51;46.88;100759.78;2304595;76;49917;-79
2024/03/14 12:21:35;;;;;;;28.50;25.80;;;;;;;21.50;46.95;100764.86;2303428;76;51712;-80
2024/03/14 12:24:37;;;;;;;28.20;25.48;;;;;;;21.50;46.94;100760.83;2341002;76;51472;-79
2024/03/14 12:27:39;;;;;;;27.02;24.50;;;;;;;21.50;46.94;100766.21;2341017;76;51598;-79
2024/03/14 12:30:43;;;;;;;27.05;24.45;;;;;;;21.50;46.96;100766.21;2340530;76;51407;-80
2024/03/14 12:33:46;;;;;;;24.40;22.07;;;;;;;21.51;46.92;100759.78;2277458;76;50082;-79
2024/03/14 12:36:48;;;;;;;25.32;22.77;;;;;;;21.49;46.90;100755.11;2340547;76;50634;-79
2024/03/14 12:39:51;;;;;;;24.82;22.52;;;;;;;21.49;46.88;100755.63;2340911;76;50706;-79
2024/03/14 12:42:54;;;;;;;24.82;22.42;;;;;;;21.48;46.87;100759.36;2303800;76;51040;-79
2024/03/14 12:45:56;;;;;;;23.67;21.52;;;;;;;21.49;46.85;100756.97;2340779;76;50763;-80
2024/03/14 12:48:59;;;;;;;22.67;20.55;;;;;;;21.49;46.83;100752.94;2340829;76;52559;-79
2024/03/14 12:52:02;;;;;;;23.87;21.57;;;;;;;21.48;46.82;100756.16;2340654;76;51349;-78
2024/03/14 12:55:16;;;;;;;23.07;20.82;;;;;;;21.47;46.84;100751.78;2304630;76;50286;-79
2024/03/14 12:58:21;;;;;;;23.30;21.00;;;;;;;21.47;46.83;100750.95;2304094;76;52631;-78
2024/03/14 13:01:31;;;;;;;;;;;;;;;21.46;46.81;100740.70;2344389;76;50332;-79
2024/03/14 13:04:32;;;;;;;23.07;20.70;;;;;;;21.47;46.81;100737.49;2330069;76;22477;-79
2024/03/14 13:07:36;;;;;;;21.80;19.77;;;;;;;21.45;46.78;100735.02;2341818;76;22452;-79
2024/03/14 13:10:41;;;;;;;21.77;19.57;;;;;;;21.44;46.77;100727.12;2341673;76;23018;-78
2024/03/14 13:13:43;;;;;;;22.02;19.82;;;;;;;21.44;46.79;100737.38;2341514;76;51560;-78
2024/03/14 13:16:45;;;;;;;20.68;18.67;;;;;;;21.43;46.80;100723.61;2304560;76;51029;-79
2024/03/14 13:19:51;;;;;;;20.80;18.75;;;;;;;21.43;46.77;100726.30;2341668;76;50727;-79
2024/03/14 13:22:52;;;;;;;;;;;;;;;21.43;46.80;100721.45;2341980;76;50393;-80
2024/03/14 13:25:56;;;;;;;22.48;19.17;;;;;;;21.41;46.81;100716.25;2304846;76;50087;-79
2024/03/14 13:28:58;;;;;;;21.15;19.15;;;;;;;21.42;46.79;100723.80;2341911;76;50824;-80
2024/03/14 13:32:00;;;;;;;20.70;18.60;;;;;;;21.42;46.82;100725.97;2341870;76;50749;-80
2024/03/14 13:35:05;;;;;;;19.42;17.52;;;;;;;21.40;46.79;100724.02;2341466;76;50317;-80
2024/03/14 13:38:08;;;;;;;19.20;17.40;;;;;;;21.40;46.81;100721.33;2304117;76;51540;-80
2024/03/14 13:41:10;;;;;;;19.57;17.62;;;;;;;21.41;46.81;100724.32;2340603;76;50744;-80
2024/03/14 13:44:12;;;;;;;20.48;17.30;;;;;;;21.40;46.79;100724.02;2302980;76;50130;-79
2024/03/14 13:47:20;;;;;;;19.23;17.23;;;;;;;21.40;46.80;100721.33;2302708;76;51793;-78
2024/03/14 13:50:21;;;;;;;17.67;15.98;;;;;;;21.40;46.80;100730.75;2280489;76;22236;-80
2024/03/14 13:53:28;;;;;;;18.30;16.60;;;;;;;21.40;46.78;100721.33;2341582;76;50428;-80
2024/03/14 13:56:28;;;;;;;19.60;16.73;;;;;;;21.40;46.78;100728.05;2340080;76;22333;-79
2024/03/14 13:59:30;;;;;;;18.52;16.55;;;;;;;21.39;46.78;100722.34;2304591;76;50917;-80
2024/03/14 14:02:33;;;;;;;17.50;15.83;;;;;;;21.40;46.75;100730.75;2341058;76;50409;-79
2024/03/14 14:05:35;;;;;;;17.77;15.98;;;;;;;21.40;46.75;100732.58;2278346;76;51128;-80
2024/03/14 14:08:37;;;;;;;16.80;15.10;;;;;;;21.38;46.77;100715.31;2304323;76;50614;-79
2024/03/14 14:11:40;;;;;;;16.85;15.28;;;;;;;21.38;46.77;100726.07;2341512;76;51529;-79